Terminal Aerodrome Forecast
Issued by NWS Milwaukee/Sullivan, WI

Home | Current Version | Previous Version | Text Only | Print | Product List | Glossary On
Versions: 1 2 3 4 5 6 7 8 9 10 11 12 13 14 15 16 17 18 19 20 21 22 23 24 25 26 27 28 29 30 31 32 33 34 35 36 37 38 39 40 41 42 43 44
000
FTUS43 KMKX 251456 AAA
TAFMSN
TAF AMD
KMSN 251456Z 2515/2612 17006KT P6SM BKN250
     FM251800 15010G15KT P6SM VCTS SCT050 BKN120CB
     FM252000 16010G15KT P6SM VCTS OVC060CB
      TEMPO 2520/2524 4SM TSRA OVC040CB
     FM260000 16008KT P6SM OVC040
     FM260900 19004KT 6SM BR BKN040
     FM261100 20005KT 4SM BR BKN020=

USA.gov is the U.S. government's official web portal to all federal, state and local government web resources and services.